Time;durP1;ratioP1;P1;durP2;ratioP2;P2;SDS_P1;SDS_P2;PMS_P1;PMS_P2;Temp;Humidity;BMP_temperature;BMP_pressure;BME280_temperature;BME280_humidity;BME280_pressure;Samples;Min_cycle;Max_cycle;Signal;HPM_P1;HPM_P2
2023/09/11 00:00:09;;;;;;;10.80;5.40;;;;;;;17.97;85.12;100609.47;4916374;29;20513;-66
2023/09/11 00:03:12;;;;;;;15.13;4.95;;;;;;;17.98;85.00;100598.75;4915885;29;20514;-67
2023/09/11 00:06:16;;;;;;;12.73;4.20;;;;;;;18.00;84.94;100596.00;4916192;29;20062;-67
2023/09/11 00:09:19;;;;;;;13.55;4.55;;;;;;;18.04;84.84;100600.06;4919726;29;20039;-67
2023/09/11 00:12:22;;;;;;;7.20;3.90;;;;;;;17.96;84.96;100598.03;4919595;29;20107;-66
2023/09/11 00:15:26;;;;;;;14.05;4.47;;;;;;;17.82;85.28;100593.88;4919375;29;20422;-66
2023/09/11 00:18:29;;;;;;;14.02;4.85;;;;;;;17.79;85.60;100591.47;4919241;29;20116;-66
2023/09/11 00:21:33;;;;;;;12.98;4.88;;;;;;;17.69;86.25;100585.22;4919379;29;20051;-67
2023/09/11 00:24:36;;;;;;;8.73;4.38;;;;;;;17.70;86.41;100594.00;4919251;29;20059;-66
2023/09/11 00:27:39;;;;;;;14.82;4.45;;;;;;;17.69;85.97;100593.16;4919116;29;20051;-66
2023/09/11 00:30:43;;;;;;;8.98;4.57;;;;;;;17.68;85.88;100586.22;4907499;29;20187;-67
2023/09/11 00:33:46;;;;;;;15.82;5.53;;;;;;;17.68;85.89;100580.91;4907480;29;20415;-67
2023/09/11 00:36:49;;;;;;;7.35;3.97;;;;;;;17.73;85.03;100586.66;4918708;29;20051;-67
2023/09/11 00:39:53;;;;;;;10.98;4.22;;;;;;;17.63;85.70;100583.09;4907915;29;20054;-66
2023/09/11 00:42:56;;;;;;;9.30;4.35;;;;;;;17.61;85.80;100574.44;4919356;29;20403;-67
2023/09/11 00:45:59;;;;;;;15.45;5.10;;;;;;;17.64;85.25;100571.53;4906841;29;20074;-67
2023/09/11 00:49:02;;;;;;;11.98;5.13;;;;;;;17.61;85.38;100574.44;4919012;29;20418;-67
2023/09/11 00:52:06;;;;;;;12.15;4.93;;;;;;;17.62;85.26;100573.47;4918859;29;20076;-66
2023/09/11 00:55:10;;;;;;;10.90;4.50;;;;;;;17.55;85.20;100573.16;4907200;29;20167;-67
2023/09/11 00:58:17;;;;;;;13.13;4.65;;;;;;;17.58;85.19;100578.19;4906940;29;20086;-67
2023/09/11 01:01:23;;;;;;;16.88;4.28;;;;;;;17.58;85.09;100577.31;4918842;29;20092;-66
2023/09/11 01:04:28;;;;;;;13.07;4.68;;;;;;;17.51;85.27;100570.84;4918698;29;20051;-66
2023/09/11 01:07:32;;;;;;;10.13;4.55;;;;;;;17.34;86.19;100570.41;4918697;29;20046;-67
2023/09/11 01:10:36;;;;;;;10.88;4.68;;;;;;;17.37;85.92;100566.69;4907138;29;20446;-66
2023/09/11 01:13:39;;;;;;;11.25;4.78;;;;;;;17.39;86.00;100567.41;4906814;29;20187;-67
2023/09/11 01:16:49;;;;;;;9.57;4.38;;;;;;;17.35;86.40;100566.78;4918461;29;20046;-67
2023/09/11 01:20:43;;;;;;;11.90;4.80;;;;;;;17.36;86.18;100565.84;4905980;29;20063;-67
2023/09/11 01:24:22;;;;;;;7.63;4.43;;;;;;;17.28;86.35;100570.91;4918358;29;20558;-67
2023/09/11 01:27:37;;;;;;;13.95;4.45;;;;;;;17.30;86.18;100563.69;4917891;29;20123;-67
2023/09/11 01:30:44;;;;;;;11.43;4.70;;;;;;;17.25;86.26;100568.50;4918319;29;20554;-67
2023/09/11 01:33:59;;;;;;;10.85;4.65;;;;;;;17.24;86.10;100568.63;4918011;29;20050;-67
2023/09/11 01:37:02;;;;;;;14.73;5.82;;;;;;;17.22;86.16;100574.03;4917927;29;20058;-66
2023/09/11 01:40:06;;;;;;;12.38;4.70;;;;;;;17.18;86.12;100569.94;4917904;29;20586;-67
2023/09/11 01:43:13;;;;;;;8.88;4.70;;;;;;;17.10;86.46;100572.34;4905830;29;20645;-67
2023/09/11 01:46:18;;;;;;;13.15;4.80;;;;;;;16.99;86.97;100567.91;4917919;29;20050;-67
2023/09/11 01:49:24;;;;;;;11.27;4.85;;;;;;;16.99;86.39;100564.44;4917473;29;20047;-67
2023/09/11 01:52:28;;;;;;;9.82;5.07;;;;;;;17.01;86.48;100562.53;4917754;29;20410;-67
2023/09/11 01:55:33;;;;;;;11.60;4.10;;;;;;;16.95;86.58;100569.97;4905658;29;20122;-67
2023/09/11 01:58:36;;;;;;;13.13;4.43;;;;;;;16.86;86.54;100567.19;4905436;29;20051;-67
2023/09/11 02:01:40;;;;;;;9.27;4.15;;;;;;;16.91;86.73;100562.38;4905933;29;20104;-66
2023/09/11 02:04:43;;;;;;;11.57;4.13;;;;;;;16.93;86.46;100561.31;4905985;29;20044;-66
2023/09/11 02:07:46;;;;;;;13.82;4.55;;;;;;;16.91;86.28;100570.31;4916828;29;20474;-67
2023/09/11 02:10:50;;;;;;;13.90;5.32;;;;;;;16.82;86.41;100563.13;4917241;29;20091;-67
2023/09/11 02:13:53;;;;;;;14.90;5.03;;;;;;;16.71;87.12;100566.53;4917411;29;20082;-67
2023/09/11 02:17:02;;;;;;;11.02;5.18;;;;;;;16.76;86.82;100563.59;4905524;29;20522;-67
2023/09/11 02:20:06;;;;;;;11.95;4.85;;;;;;;16.82;86.67;100565.75;4917068;29;20055;-67
2023/09/11 02:23:09;;;;;;;8.18;4.55;;;;;;;16.73;87.07;100565.47;4917159;29;20574;-67
2023/09/11 02:26:13;;;;;;;10.30;4.40;;;;;;;16.71;87.14;100570.03;4917629;29;20047;-67
2023/09/11 02:29:17;;;;;;;11.25;4.78;;;;;;;16.77;86.71;100567.91;4905720;29;20047;-66
2023/09/11 02:32:20;;;;;;;15.82;4.78;;;;;;;16.70;86.78;100570.16;4916660;29;20059;-67
2023/09/11 02:35:24;;;;;;;9.45;4.55;;;;;;;16.63;86.73;100569.78;4905260;29;20055;-67
2023/09/11 02:38:27;;;;;;;8.18;4.40;;;;;;;16.65;86.72;100567.00;4917049;29;20055;-66
2023/09/11 02:41:30;;;;;;;10.40;5.03;;;;;;;16.61;87.01;100573.50;4917057;29;20410;-67
2023/09/11 02:44:34;;;;;;;10.98;4.63;;;;;;;16.62;86.92;100569.88;4916790;29;20172;-66
2023/09/11 02:47:38;;;;;;;8.82;3.70;;;;;;;16.55;86.96;100563.41;4917045;29;20047;-66
2023/09/11 02:50:41;;;;;;;14.43;5.25;;;;;;;16.53;86.86;100563.53;4904714;29;20054;-66
2023/09/11 02:53:44;;;;;;;11.73;4.47;;;;;;;16.53;86.95;100563.53;4905091;29;20051;-66
2023/09/11 02:56:47;;;;;;;9.27;3.67;;;;;;;16.57;86.69;100564.97;4916662;29;20047;-66
2023/09/11 02:59:55;;;;;;;13.32;4.78;;;;;;;16.55;86.83;100563.41;4898169;29;20510;-66
2023/09/11 03:02:58;;;;;;;11.35;4.80;;;;;;;16.49;86.88;100560.25;4898045;29;20463;-66
2023/09/11 03:06:04;;;;;;;10.38;5.18;;;;;;;16.47;87.14;100553.44;4896661;29;20055;-66
2023/09/11 03:09:07;;;;;;;12.23;4.45;;;;;;;16.43;86.99;100546.69;4886214;29;20073;-66
2023/09/11 03:12:11;;;;;;;11.85;4.50;;;;;;;16.37;87.56;100549.81;4897653;29;20048;-66
2023/09/11 03:15:14;;;;;;;9.00;4.35;;;;;;;16.40;86.96;100547.81;4897989;29;20073;-66
2023/09/11 03:18:18;;;;;;;9.75;4.35;;;;;;;16.45;86.86;100550.91;4901941;29;20520;-66
2023/09/11 03:21:21;;;;;;;16.95;5.43;;;;;;;16.39;87.07;100540.81;4916526;29;20047;-66
2023/09/11 03:24:24;;;;;;;15.63;4.25;;;;;;;16.38;87.44;100548.88;4916497;29;20051;-66
2023/09/11 03:27:28;;;;;;;9.07;4.50;;;;;;;16.39;87.58;100540.81;4904722;29;20047;-66
2023/09/11 03:30:31;;;;;;;12.50;4.53;;;;;;;16.35;87.65;100538.53;4916512;29;20068;-66
2023/09/11 03:33:34;;;;;;;14.55;5.50;;;;;;;16.34;87.83;100536.88;4904698;29;20055;-66
2023/09/11 03:36:38;;;;;;;14.80;5.80;;;;;;;16.37;87.77;100537.47;4916349;29;20051;-66
2023/09/11 03:39:43;;;;;;;9.98;4.10;;;;;;;16.42;87.40;100540.59;4905007;29;20055;-66
2023/09/11 03:42:47;;;;;;;13.25;5.28;;;;;;;16.47;87.39;100537.63;4907465;29;20083;-66
2023/09/11 03:45:50;;;;;;;15.02;6.03;;;;;;;16.38;88.31;100539.16;4908442;29;20055;-67
2023/09/11 03:48:53;;;;;;;15.55;5.35;;;;;;;16.39;88.20;100539.97;4908370;29;20470;-67
2023/09/11 03:51:57;;;;;;;16.73;5.75;;;;;;;16.41;87.96;100538.91;4920019;29;20043;-67
2023/09/11 03:55:00;;;;;;;13.10;5.07;;;;;;;16.39;87.97;100527.63;4920062;29;20047;-67
2023/09/11 03:58:04;;;;;;;12.20;5.43;;;;;;;16.37;87.97;100532.19;4908170;29;20104;-66
2023/09/11 04:01:07;;;;;;;24.83;7.47;;;;;;;16.27;88.70;100529.44;4919914;29;20529;-66
2023/09/11 04:04:10;;;;;;;15.63;6.03;;;;;;;16.26;89.07;100532.16;4908088;29;20078;-67
2023/09/11 04:07:14;;;;;;;18.20;6.43;;;;;;;16.36;88.47;100530.50;4908136;29;20525;-67
2023/09/11 04:10:17;;;;;;;14.07;6.45;;;;;;;16.34;88.76;100532.44;4919803;29;20112;-66
2023/09/11 04:13:23;;;;;;;24.58;7.80;;;;;;;16.24;89.96;100528.78;4919676;29;20064;-66
2023/09/11 04:16:26;;;;;;;21.83;7.35;;;;;;;16.22;90.64;100533.34;4919489;29;20055;-65
2023/09/11 04:19:30;;;;;;;18.27;7.22;;;;;;;16.15;91.43;100524.25;4907499;29;20051;-66
2023/09/11 04:22:33;;;;;;;21.83;7.22;;;;;;;16.10;91.71;100523.72;4907774;29;20478;-66
2023/09/11 04:25:36;;;;;;;19.30;6.75;;;;;;;16.15;91.37;100530.34;4919468;29;20055;-66
2023/09/11 04:28:40;;;;;;;20.65;6.75;;;;;;;16.14;91.30;100533.09;4907676;29;20115;-66
2023/09/11 04:31:44;;;;;;;15.70;7.25;;;;;;;16.13;91.14;100534.06;4919327;29;20475;-67
2023/09/11 04:34:47;;;;;;;21.05;7.15;;;;;;;16.11;90.82;100530.69;4906805;29;20104;-67
2023/09/11 04:37:53;;;;;;;18.95;6.95;;;;;;;16.00;91.95;100529.69;4919387;29;20058;-66
2023/09/11 04:40:57;;;;;;;15.43;7.30;;;;;;;16.08;90.89;100530.91;4919167;29;20414;-66
2023/09/11 04:44:03;;;;;;;13.32;7.03;;;;;;;16.11;90.30;100536.78;4907501;29;20417;-66
2023/09/11 04:47:06;;;;;;;16.38;6.22;;;;;;;16.14;90.57;100530.44;4907393;29;20112;-66
2023/09/11 04:50:10;;;;;;;17.17;7.13;;;;;;;16.03;90.95;100531.25;4907381;29;20111;-67
2023/09/11 04:53:14;;;;;;;15.88;6.75;;;;;;;15.99;90.93;100537.72;4906174;29;20066;-66
2023/09/11 04:56:17;;;;;;;20.73;7.03;;;;;;;15.63;93.41;100525.44;4918311;29;20051;-63
2023/09/11 04:59:21;;;;;;;14.10;6.22;;;;;;;15.63;94.65;100534.16;4905221;29;20131;-63
2023/09/11 05:02:24;;;;;;;;;;;;;;;15.63;95.02;100542.06;4905805;29;20115;-63
2023/09/11 05:05:27;;;;;;;12.93;6.72;;;;;;;15.50;96.12;100541.28;4917466;29;19986;-63
2023/09/11 05:08:32;;;;;;;24.75;7.22;;;;;;;15.54;95.60;100537.50;4917262;29;20127;-63
2023/09/11 05:11:35;;;;;;;12.23;6.65;;;;;;;15.64;95.26;100541.16;4904885;29;20467;-62
2023/09/11 05:14:38;;;;;;;13.43;6.43;;;;;;;15.54;96.54;100538.34;4904955;29;20047;-62
2023/09/11 05:17:42;;;;;;;16.33;6.55;;;;;;;15.65;97.08;100539.34;4905061;29;20152;-63
2023/09/11 05:20:50;;;;;;;19.55;7.53;;;;;;;15.70;96.00;100538.09;4905198;29;20578;-63
2023/09/11 05:23:55;;;;;;;20.90;7.43;;;;;;;15.76;95.60;100531.50;4904791;29;20050;-66
2023/09/11 05:26:59;;;;;;;12.23;6.50;;;;;;;15.90;93.81;100538.41;4916589;29;20054;-66
2023/09/11 05:30:03;;;;;;;14.75;7.30;;;;;;;16.02;93.18;100538.34;4916558;29;20084;-63
2023/09/11 05:33:09;;;;;;;17.27;7.32;;;;;;;16.07;93.19;100529.25;4916463;29;20055;-64
2023/09/11 05:36:12;;;;;;;16.30;8.13;;;;;;;16.09;92.77;100540.53;4916172;29;20051;-65
2023/09/11 05:39:15;;;;;;;14.40;7.32;;;;;;;16.19;92.29;100544.16;4904581;29;20047;-64
2023/09/11 05:42:18;;;;;;;10.35;7.13;;;;;;;16.24;91.51;100547.25;4916421;29;20066;-64
2023/09/11 05:45:21;;;;;;;16.00;6.90;;;;;;;16.16;91.68;100544.38;4914723;29;20080;-65
2023/09/11 05:48:25;;;;;;;12.20;6.68;;;;;;;16.20;91.80;100540.53;4914744;29;20070;-62
2023/09/11 05:51:28;;;;;;;12.13;6.75;;;;;;;16.25;91.76;100543.69;4914544;29;20104;-63
2023/09/11 05:54:33;;;;;;;13.02;7.18;;;;;;;16.19;91.96;100549.41;4914497;29;20058;-64
2023/09/11 05:57:37;;;;;;;12.13;6.43;;;;;;;16.24;92.26;100553.41;4915107;29;20112;-64
2023/09/11 06:00:40;;;;;;;18.85;7.70;;;;;;;16.25;92.43;100548.97;4915682;29;20063;-64
2023/09/11 06:03:43;;;;;;;14.32;7.32;;;;;;;16.28;92.01;100551.38;4915961;29;20102;-64
2023/09/11 06:06:46;;;;;;;16.25;7.30;;;;;;;16.22;92.44;100550.03;4915949;29;20447;-63
2023/09/11 06:09:50;;;;;;;10.85;6.88;;;;;;;16.28;92.23;100551.38;4915841;29;20462;-63
2023/09/11 06:12:53;;;;;;;9.80;6.43;;;;;;;16.24;92.34;100555.16;4915862;29;20070;-64
2023/09/11 06:15:57;;;;;;;9.32;6.05;;;;;;;16.29;92.55;100555.69;4916064;29;20601;-64
2023/09/11 06:19:00;;;;;;;10.45;6.38;;;;;;;16.31;92.34;100558.22;4915196;29;20051;-65
2023/09/11 06:22:03;;;;;;;11.98;6.35;;;;;;;16.47;91.68;100559.56;4915728;29;20513;-64
2023/09/11 06:25:07;;;;;;;11.25;6.43;;;;;;;16.50;91.41;100561.13;4915638;29;20100;-64
2023/09/11 06:28:10;;;;;;;14.88;6.40;;;;;;;16.57;91.64;100559.69;4915893;29;20491;-64
2023/09/11 06:31:14;;;;;;;10.77;6.38;;;;;;;16.66;91.60;100558.16;4915920;29;20115;-64
2023/09/11 06:34:17;;;;;;;14.48;6.85;;;;;;;16.69;91.73;100560.56;4915865;29;20461;-63
2023/09/11 06:37:20;;;;;;;16.80;8.80;;;;;;;16.65;92.46;100554.66;4915219;29;20051;-63
2023/09/11 06:40:24;;;;;;;19.27;9.77;;;;;;;16.72;91.84;100563.81;4915564;29;20055;-64
2023/09/11 06:43:27;;;;;;;16.70;8.52;;;;;;;16.82;91.60;100557.84;4915448;29;20139;-63
2023/09/11 06:46:31;;;;;;;15.10;7.65;;;;;;;16.80;91.55;100555.31;4915002;29;20111;-64
2023/09/11 06:49:34;;;;;;;15.82;7.40;;;;;;;16.79;91.91;100556.28;4915119;29;20522;-64
2023/09/11 06:52:39;;;;;;;15.85;7.82;;;;;;;16.84;92.06;100556.75;4914271;29;20127;-64
2023/09/11 06:55:44;;;;;;;16.95;8.38;;;;;;;16.88;92.09;100552.91;4914420;29;20152;-63
2023/09/11 06:58:47;;;;;;;15.55;8.15;;;;;;;16.76;93.94;100556.50;4913130;29;20513;-78
2023/09/11 07:01:50;;;;;;;11.27;7.43;;;;;;;16.63;94.87;100542.56;4913439;29;20107;-74
2023/09/11 07:04:54;;;;;;;15.10;7.43;;;;;;;16.69;95.30;100544.72;4914766;29;20474;-74
2023/09/11 07:07:57;;;;;;;11.48;7.75;;;;;;;16.79;94.63;100551.00;4914557;29;20051;-74
2023/09/11 07:11:00;;;;;;;14.48;7.32;;;;;;;16.83;94.10;100544.50;4914693;29;20140;-73
2023/09/11 07:14:05;;;;;;;12.98;6.55;;;;;;;16.83;94.92;100544.50;4914821;29;20058;-74
2023/09/11 07:17:08;;;;;;;11.90;6.80;;;;;;;16.96;95.10;100545.22;4914442;29;20434;-76
2023/09/11 07:20:12;;;;;;;13.90;6.75;;;;;;;16.98;95.45;100546.91;4903157;29;20143;-73
2023/09/11 07:23:15;;;;;;;12.77;6.38;;;;;;;17.07;94.92;100540.88;4914832;29;20044;-74
2023/09/11 07:26:18;;;;;;;13.63;7.03;;;;;;;17.10;95.21;100543.28;4914514;29;20051;-72
2023/09/11 07:29:26;;;;;;;13.68;6.28;;;;;;;17.23;94.62;100536.09;4914906;29;20108;-76
2023/09/11 07:32:30;;;;;;;11.30;6.75;;;;;;;17.34;94.83;100530.75;4914588;29;20078;-75
2023/09/11 07:35:33;;;;;;;16.60;6.00;;;;;;;17.50;94.60;100517.16;4914749;29;20091;-74
2023/09/11 07:38:36;;;;;;;10.15;5.80;;;;;;;17.65;94.18;100515.91;4902756;29;20051;-71
2023/09/11 07:41:40;;;;;;;13.07;5.93;;;;;;;17.73;94.00;100523.19;4914968;29;20107;-66
2023/09/11 07:44:43;;;;;;;14.43;6.65;;;;;;;17.85;94.58;100524.84;4914556;29;20438;-71
2023/09/11 07:47:47;;;;;;;12.63;5.93;;;;;;;18.05;93.45;100514.41;4914725;29;20047;-64
2023/09/11 07:50:55;;;;;;;13.95;5.63;;;;;;;18.31;91.96;100515.72;4914685;29;20055;-64
2023/09/11 07:53:59;;;;;;;14.48;6.80;;;;;;;18.45;91.63;100519.00;4914165;29;20127;-64
2023/09/11 07:57:03;;;;;;;15.45;6.28;;;;;;;18.55;91.76;100509.28;4914373;29;20410;-64
2023/09/11 08:00:07;;;;;;;18.23;6.85;;;;;;;18.69;91.41;100519.53;4914607;29;20508;-64
2023/09/11 08:03:11;;;;;;;15.15;6.65;;;;;;;18.81;90.77;100518.50;4914260;29;20051;-64
2023/09/11 08:06:14;;;;;;;16.02;6.03;;;;;;;18.80;91.71;100516.81;4914545;29;20110;-64
2023/09/11 08:09:17;;;;;;;12.80;5.93;;;;;;;18.91;91.12;100509.75;4914237;29;20167;-64
2023/09/11 08:12:21;;;;;;;15.27;7.50;;;;;;;19.05;91.05;100515.53;4914332;29;20192;-64
2023/09/11 08:15:24;;;;;;;18.10;7.30;;;;;;;19.23;90.82;100514.84;4914340;29;20059;-64
2023/09/11 08:18:30;;;;;;;16.13;5.90;;;;;;;19.36;90.08;100504.81;4913872;29;20094;-64
2023/09/11 08:21:33;;;;;;;12.93;6.15;;;;;;;19.51;89.21;100502.63;4913676;29;20075;-64
2023/09/11 08:24:37;;;;;;;15.93;5.95;;;;;;;19.61;88.70;100510.59;4913514;29;20496;-64
2023/09/11 08:27:40;;;;;;;18.48;5.82;;;;;;;19.65;87.92;100509.34;4914583;29;20502;-64
2023/09/11 08:30:44;;;;;;;19.27;6.75;;;;;;;19.71;88.67;100508.81;4916253;29;20548;-65
2023/09/11 08:33:50;;;;;;;14.85;6.05;;;;;;;19.79;87.68;100506.31;4915999;29;20054;-64
2023/09/11 08:36:53;;;;;;;17.63;6.97;;;;;;;19.91;87.63;100505.19;4916374;29;20418;-64
2023/09/11 08:39:57;;;;;;;12.30;6.00;;;;;;;20.00;86.76;100500.00;4916277;29;20059;-64
2023/09/11 08:43:02;;;;;;;16.50;6.38;;;;;;;20.13;86.51;100503.19;4916428;29;20046;-64
2023/09/11 08:46:06;;;;;;;13.38;5.40;;;;;;;20.19;86.42;100495.47;4917399;29;20104;-65
2023/09/11 08:49:11;;;;;;;17.65;6.93;;;;;;;20.31;86.14;100495.31;4917216;29;20091;-64
2023/09/11 08:52:17;;;;;;;16.52;5.90;;;;;;;20.42;85.44;100492.47;4917404;29;20406;-64
2023/09/11 08:55:23;;;;;;;13.23;6.10;;;;;;;20.48;84.75;100491.91;4917234;29;20098;-64
2023/09/11 08:58:29;;;;;;;22.27;6.50;;;;;;;20.67;84.63;100480.41;4916950;29;20410;-64
2023/09/11 09:01:32;;;;;;;18.50;5.57;;;;;;;20.82;83.72;100483.41;4917447;29;20142;-64
2023/09/11 09:04:37;;;;;;;26.98;7.60;;;;;;;20.95;82.63;100481.25;4917125;29;20051;-64
2023/09/11 09:07:43;;;;;;;9.98;5.47;;;;;;;21.04;82.89;100472.38;4917122;29;20070;-64
2023/09/11 09:10:48;;;;;;;20.55;6.47;;;;;;;21.16;82.37;100473.03;4916862;29;20469;-64
2023/09/11 09:13:51;;;;;;;17.13;6.50;;;;;;;21.21;81.57;100478.72;4917006;29;20047;-64
2023/09/11 09:16:56;;;;;;;16.20;5.80;;;;;;;21.28;80.97;100462.97;4916726;29;20142;-64
2023/09/11 09:20:00;;;;;;;15.93;5.63;;;;;;;21.37;81.62;100467.44;4916776;29;20083;-64
2023/09/11 09:23:04;;;;;;;20.73;6.03;;;;;;;21.45;80.73;100464.88;4916973;29;20059;-65
2023/09/11 09:26:09;;;;;;;16.35;5.75;;;;;;;21.61;80.62;100458.03;4916670;29;20082;-64
2023/09/11 09:29:16;;;;;;;21.33;6.38;;;;;;;21.67;81.85;100452.09;4916899;29;20046;-65
2023/09/11 09:32:19;;;;;;;24.95;6.35;;;;;;;21.79;80.31;100446.38;4916507;29;20124;-64
2023/09/11 09:35:26;;;;;;;17.40;5.85;;;;;;;21.89;80.79;100448.94;4916513;29;20054;-64
2023/09/11 09:38:31;;;;;;;20.55;7.00;;;;;;;22.18;80.49;100451.31;4916430;29;20210;-66
2023/09/11 09:41:34;;;;;;;14.05;5.78;;;;;;;22.35;78.30;100446.91;4916724;29;20058;-66
2023/09/11 09:44:49;;;;;;;17.83;7.28;;;;;;;22.35;78.01;100441.59;4916732;29;20050;-66
2023/09/11 09:48:15;;;;;;;21.83;6.97;;;;;;;22.32;77.54;100436.56;4916292;29;20466;-66
2023/09/11 09:51:20;;;;;;;21.40;6.63;;;;;;;22.46;77.36;100436.00;4916351;29;20074;-66
2023/09/11 09:54:40;;;;;;;17.95;5.78;;;;;;;22.54;77.21;100429.84;4915981;29;20134;-66
2023/09/11 09:57:46;;;;;;;20.33;6.85;;;;;;;22.57;76.20;100420.72;4916035;29;20104;-66
2023/09/11 10:00:49;;;;;;;13.60;5.75;;;;;;;22.64;76.14;100424.41;4916036;29;20047;-66
2023/09/11 10:03:53;;;;;;;20.23;6.25;;;;;;;22.96;76.93;100413.88;4915958;29;20178;-66
2023/09/11 10:06:58;;;;;;;13.57;6.75;;;;;;;23.16;75.27;100408.22;4915789;29;20074;-66
2023/09/11 10:10:28;;;;;;;19.00;5.93;;;;;;;23.24;73.41;100402.91;4916145;29;20478;-69
2023/09/11 10:13:35;;;;;;;21.13;6.53;;;;;;;23.42;73.64;100405.41;4915701;29;20143;-71
2023/09/11 10:16:38;;;;;;;16.42;5.35;;;;;;;23.35;72.69;100402.56;4915606;29;20178;-71
2023/09/11 10:19:42;;;;;;;17.67;5.72;;;;;;;23.42;73.03;100398.25;4915568;29;20096;-71
2023/09/11 10:22:45;;;;;;;26.00;6.07;;;;;;;23.47;73.24;100387.06;4915872;29;20054;-71
2023/09/11 10:25:52;;;;;;;16.92;5.93;;;;;;;23.59;73.42;100382.25;4915612;29;20096;-64
2023/09/11 10:29:00;;;;;;;31.83;7.70;;;;;;;23.92;72.63;100376.88;4915476;29;20156;-71
2023/09/11 10:32:09;;;;;;;24.10;6.45;;;;;;;23.95;71.85;100365.84;4915713;29;20146;-63
2023/09/11 10:35:13;;;;;;;16.25;7.60;;;;;;;24.30;70.86;100360.06;4915444;29;20051;-63
2023/09/11 10:38:16;;;;;;;17.83;6.18;;;;;;;24.37;70.13;100354.84;4915434;29;20123;-63
2023/09/11 10:41:19;;;;;;;16.13;5.38;;;;;;;24.62;70.37;100346.75;4915493;29;20066;-66
2023/09/11 10:44:23;;;;;;;14.70;5.75;;;;;;;24.68;69.53;100352.22;4915626;29;20119;-66
2023/09/11 10:47:27;;;;;;;21.88;6.10;;;;;;;24.71;67.29;100341.16;4915836;29;20092;-69
2023/09/11 10:50:38;;;;;;;16.38;5.53;;;;;;;24.88;66.52;100335.72;4915062;29;20066;-66
2023/09/11 10:53:41;;;;;;;16.58;5.78;;;;;;;24.90;67.04;100344.41;4915367;29;20059;-66
2023/09/11 10:56:44;;;;;;;19.05;5.45;;;;;;;25.14;66.00;100336.22;4915370;29;20135;-65
2023/09/11 10:59:49;;;;;;;16.05;5.55;;;;;;;25.24;67.31;100336.00;4915101;29;20043;-66
2023/09/11 11:02:56;;;;;;;24.40;5.45;;;;;;;25.23;68.78;100335.13;4915490;29;20475;-65
2023/09/11 11:06:04;;;;;;;20.90;6.65;;;;;;;25.45;65.32;100333.44;4915081;29;20135;-65
2023/09/11 11:09:28;;;;;;;20.98;6.03;;;;;;;25.60;65.86;100332.63;4903339;29;20407;-65
2023/09/11 11:12:34;;;;;;;17.65;5.93;;;;;;;25.74;64.44;100326.44;4915248;29;20107;-66
2023/09/11 11:15:40;;;;;;;13.43;6.15;;;;;;;25.72;64.03;100332.00;4915052;29;20143;-65
2023/09/11 11:18:45;;;;;;;18.27;6.60;;;;;;;25.89;67.02;100324.66;4915127;29;20340;-66
2023/09/11 11:21:48;;;;;;;21.58;5.68;;;;;;;26.00;63.72;100326.03;4915175;29;20414;-65
2023/09/11 11:25:03;;;;;;;14.35;5.60;;;;;;;26.04;65.00;100326.47;4914854;29;20135;-66
2023/09/11 11:28:41;;;;;;;15.10;5.32;;;;;;;26.24;64.46;100324.91;4915185;29;20111;-66
2023/09/11 11:31:46;;;;;;;20.50;6.30;;;;;;;26.26;64.75;100319.34;4903765;29;20054;-67
2023/09/11 11:34:53;;;;;;;17.20;5.57;;;;;;;26.21;62.23;100320.75;4914763;29;20146;-66
2023/09/11 11:37:57;;;;;;;21.17;5.18;;;;;;;26.36;64.87;100312.69;4914808;29;20058;-66
2023/09/11 11:41:02;;;;;;;12.95;5.07;;;;;;;26.60;62.33;100310.69;4914829;29;20150;-66
2023/09/11 11:44:06;;;;;;;21.88;5.85;;;;;;;26.72;62.38;100308.34;4914688;29;20086;-66
2023/09/11 11:47:09;;;;;;;17.42;5.57;;;;;;;26.70;59.59;100305.84;4914982;29;20114;-66
2023/09/11 11:50:13;;;;;;;17.33;5.15;;;;;;;26.72;55.49;100305.69;4914612;29;20062;-66
2023/09/11 11:53:20;;;;;;;17.52;5.75;;;;;;;26.69;57.61;100308.75;4914760;29;20514;-66
2023/09/11 11:56:26;;;;;;;17.23;5.55;;;;;;;26.97;54.15;100306.13;4914810;29;20575;-66
2023/09/11 11:59:39;;;;;;;14.23;4.97;;;;;;;26.95;54.97;100303.63;4914541;29;20176;-67
2023/09/11 12:02:43;;;;;;;15.25;4.60;;;;;;;27.07;56.35;100291.34;4915465;29;20079;-66
2023/09/11 12:05:46;;;;;;;10.20;4.75;;;;;;;27.09;52.49;100285.78;4917749;29;20047;-68
2023/09/11 12:08:49;;;;;;;9.05;4.75;;;;;;;27.08;49.15;100287.63;4918089;29;20107;-67
2023/09/11 12:11:53;;;;;;;12.77;5.25;;;;;;;27.15;57.12;100290.41;4918176;29;20099;-66
2023/09/11 12:14:58;;;;;;;12.02;4.32;;;;;;;27.12;52.41;100280.03;4918115;29;20131;-66
2023/09/11 12:18:01;;;;;;;18.67;6.75;;;;;;;27.59;55.49;100274.00;4917761;29;20108;-67
2023/09/11 12:21:06;;;;;;;11.90;4.75;;;;;;;27.96;52.82;100274.66;4917733;29;20051;-65
2023/09/11 12:24:10;;;;;;;20.13;5.35;;;;;;;28.23;52.40;100269.38;4917771;29;20051;-67
2023/09/11 12:27:14;;;;;;;15.02;5.15;;;;;;;28.55;51.85;100262.44;4918085;29;20127;-65
2023/09/11 12:30:18;;;;;;;10.88;4.72;;;;;;;28.66;48.02;100259.16;4918217;29;20503;-66
2023/09/11 12:33:24;;;;;;;18.73;5.25;;;;;;;28.87;52.06;100258.13;4917572;29;20046;-66
2023/09/11 12:36:28;;;;;;;14.65;4.68;;;;;;;29.17;47.25;100257.75;4917618;29;20044;-66
2023/09/11 12:39:31;;;;;;;11.32;4.53;;;;;;;29.47;38.42;100258.13;4917634;29;20055;-65
2023/09/11 12:42:37;;;;;;;9.85;3.50;;;;;;;29.84;36.71;100255.78;4917921;29;20095;-66
2023/09/11 12:45:41;;;;;;;13.13;3.88;;;;;;;30.29;36.01;100248.53;4917915;29;20051;-72
2023/09/11 12:48:45;;;;;;;10.95;4.13;;;;;;;30.60;40.54;100241.50;4917647;29;20474;-65
2023/09/11 12:51:49;;;;;;;10.57;3.85;;;;;;;30.96;36.62;100237.31;4918128;29;20463;-65
2023/09/11 12:54:52;;;;;;;21.55;4.63;;;;;;;31.50;34.85;100233.91;4917761;29;20522;-64
2023/09/11 12:57:57;;;;;;;15.27;4.35;;;;;;;31.72;37.00;100234.28;4917565;29;20047;-66
2023/09/11 13:01:01;;;;;;;11.40;4.45;;;;;;;31.95;35.00;100230.91;4905977;29;20471;-70
2023/09/11 13:04:08;;;;;;;14.80;3.95;;;;;;;32.04;40.71;100227.88;4917237;29;20046;-71
2023/09/11 13:07:11;;;;;;;15.20;4.93;;;;;;;32.28;39.21;100224.19;4917310;29;20126;-67
2023/09/11 13:10:14;;;;;;;14.90;3.78;;;;;;;32.98;37.71;100226.28;4917246;29;20128;-67
2023/09/11 13:13:20;;;;;;;13.68;4.50;;;;;;;33.50;33.28;100225.56;4917111;29;20055;-68
2023/09/11 13:16:24;;;;;;;10.80;4.10;;;;;;;34.06;34.49;100218.59;4917057;29;20095;-66
2023/09/11 13:19:27;;;;;;;9.68;4.40;;;;;;;34.49;34.19;100214.47;4916717;29;20111;-76
2023/09/11 13:22:32;;;;;;;12.63;4.18;;;;;;;34.63;29.02;100210.41;4917016;29;20074;-69
2023/09/11 13:25:36;;;;;;;16.63;4.72;;;;;;;36.02;27.55;100207.72;4916900;29;20410;-67
2023/09/11 13:28:40;;;;;;;12.10;3.83;;;;;;;37.25;28.44;100193.22;4917821;29;20062;-67
2023/09/11 13:31:43;;;;;;;19.15;4.53;;;;;;;40.79;24.22;100186.03;4916602;29;20050;-67
2023/09/11 13:34:47;;;;;;;13.63;4.35;;;;;;;42.07;19.50;100185.28;4916876;29;20097;-67
2023/09/11 13:37:50;;;;;;;16.65;4.53;;;;;;;43.92;19.49;100186.22;4917303;29;20051;-67
2023/09/11 13:40:54;;;;;;;14.90;4.80;;;;;;;44.37;17.57;100186.25;4916793;29;20079;-68
2023/09/11 13:43:57;;;;;;;13.38;4.25;;;;;;;45.41;16.14;100175.69;4916835;29;20047;-68
2023/09/11 13:47:02;;;;;;;12.32;4.28;;;;;;;44.38;20.82;100176.84;4916647;29;20059;-68
2023/09/11 13:50:05;;;;;;;11.38;4.30;;;;;;;45.02;19.78;100168.25;4916359;29;20043;-67
2023/09/11 13:53:10;;;;;;;10.85;3.67;;;;;;;45.89;19.15;100163.75;4916211;29;20055;-67
2023/09/11 13:56:13;;;;;;;13.88;4.53;;;;;;;46.04;18.40;100165.19;4916476;29;20186;-69
2023/09/11 13:59:16;;;;;;;11.52;4.72;;;;;;;47.86;16.81;100157.25;4916096;29;20570;-67
2023/09/11 14:02:19;;;;;;;12.93;4.15;;;;;;;47.98;16.76;100166.41;4916239;29;20055;-68
2023/09/11 14:05:23;;;;;;;11.38;4.35;;;;;;;47.99;16.68;100158.91;4916331;29;20099;-64
2023/09/11 14:08:28;;;;;;;13.02;3.38;;;;;;;47.67;17.32;100149.38;4916326;29;20107;-65
2023/09/11 14:11:31;;;;;;;8.70;3.42;;;;;;;47.22;17.85;100147.25;4916161;29;20086;-64